createdAt,value
2023-04-26T00:01:58.698Z,2.60
2023-04-26T00:04:25.639Z,2.80
2023-04-26T00:06:52.453Z,2.67
2023-04-26T00:09:21.801Z,2.85
2023-04-26T00:11:48.399Z,2.75
2023-04-26T00:14:15.051Z,2.92
2023-04-26T00:16:41.731Z,2.90
2023-04-26T00:19:10.579Z,3.20
2023-04-26T00:21:37.166Z,2.38
2023-04-26T00:24:05.560Z,3.28
2023-04-26T00:26:34.249Z,2.83
2023-04-26T00:29:02.040Z,3.10
2023-04-26T00:31:28.776Z,3.15
2023-04-26T00:33:55.456Z,3.63
2023-04-26T00:36:22.276Z,3.20
2023-04-26T00:38:48.937Z,3.00
2023-04-26T00:41:15.514Z,4.00
2023-04-26T00:43:42.086Z,3.17
2023-04-26T00:46:12.367Z,3.58
2023-04-26T00:48:39.178Z,3.35
2023-04-26T00:51:06.518Z,3.10
2023-04-26T00:53:35.355Z,3.33
2023-04-26T00:56:02.503Z,3.38
2023-04-26T00:58:29.880Z,3.60
2023-04-26T01:00:56.859Z,3.13
2023-04-26T01:03:23.713Z,3.38
2023-04-26T01:05:50.753Z,3.90
2023-04-26T01:08:20.770Z,3.42
2023-04-26T01:10:48.882Z,3.10
2023-04-26T01:13:17.079Z,3.50
2023-04-26T01:15:47.379Z,2.88
2023-04-26T01:18:14.888Z,3.28
2023-04-26T01:20:43.032Z,3.05
2023-04-26T01:23:10.466Z,3.40
2023-04-26T01:25:38.803Z,3.38
2023-04-26T01:28:05.486Z,3.72
2023-04-26T01:30:32.051Z,3.33
2023-04-26T01:33:01.682Z,2.97
2023-04-26T01:35:28.322Z,3.20
2023-04-26T01:37:54.928Z,3.22
2023-04-26T01:40:21.985Z,3.13
2023-04-26T01:42:48.501Z,3.17
2023-04-26T01:45:15.740Z,2.90
2023-04-26T01:48:01.149Z,3.60
2023-04-26T01:50:31.894Z,3.28
2023-04-26T01:52:58.522Z,3.90
2023-04-26T01:55:25.094Z,3.33
2023-04-26T01:57:51.677Z,4.53
2023-04-26T02:00:18.561Z,3.88
2023-04-26T02:02:48.895Z,3.67
2023-04-26T02:05:15.669Z,3.63
2023-04-26T02:07:42.257Z,4.03
2023-04-26T02:10:09.351Z,4.15
2023-04-26T02:12:36.322Z,3.78
2023-04-26T02:15:03.114Z,3.83
2023-04-26T02:17:29.766Z,4.30
2023-04-26T02:19:57.029Z,3.88
2023-04-26T02:22:25.291Z,3.60
2023-04-26T02:24:52.804Z,4.90
2023-04-26T02:27:19.868Z,4.13
2023-04-26T02:29:46.809Z,4.40
2023-04-26T02:32:14.457Z,4.40
2023-04-26T02:34:41.733Z,5.75
2023-04-26T02:37:08.978Z,4.40
2023-04-26T02:39:35.914Z,4.53
2023-04-26T02:42:02.516Z,4.70
2023-04-26T02:44:30.979Z,5.03
2023-04-26T02:46:58.024Z,4.85
2023-04-26T02:49:24.891Z,4.75
2023-04-26T02:51:51.808Z,4.88
2023-04-26T02:54:18.625Z,5.47
2023-04-26T02:56:45.609Z,4.53
2023-04-26T02:59:12.239Z,5.10
2023-04-26T03:01:38.937Z,4.82
2023-04-26T03:04:05.892Z,5.00
2023-04-26T03:06:34.431Z,5.40
2023-04-26T03:09:01.192Z,5.00
2023-04-26T03:11:27.829Z,4.72
2023-04-26T03:13:54.402Z,4.93
2023-04-26T03:16:24.049Z,5.03
2023-04-26T03:18:51.100Z,5.25
2023-04-26T03:21:17.877Z,4.90
2023-04-26T03:23:44.683Z,5.07
2023-04-26T03:26:11.281Z,5.78
2023-04-26T03:28:38.375Z,4.93
2023-04-26T03:31:05.149Z,4.93
2023-04-26T03:33:32.193Z,5.53
2023-04-26T03:35:59.062Z,5.00
2023-04-26T03:38:26.155Z,5.00
2023-04-26T03:40:52.834Z,5.57
2023-04-26T03:43:19.416Z,5.40
2023-04-26T03:45:49.369Z,5.60
2023-04-26T03:48:17.182Z,5.80
2023-04-26T03:50:45.979Z,5.53
2023-04-26T03:53:12.961Z,4.97
2023-04-26T03:55:39.721Z,5.20
2023-04-26T03:58:08.013Z,5.35
2023-04-26T04:00:38.649Z,5.72
2023-04-26T04:03:07.749Z,5.95
2023-04-26T04:05:34.733Z,5.32
2023-04-26T04:08:01.835Z,5.60
2023-04-26T04:10:29.405Z,5.15
2023-04-26T04:12:56.044Z,6.13
2023-04-26T04:15:23.323Z,5.35
2023-04-26T04:17:50.119Z,5.85
2023-04-26T04:20:16.970Z,4.95
2023-04-26T04:22:43.608Z,5.20
2023-04-26T04:25:10.930Z,5.90
2023-04-26T04:27:38.854Z,5.50
2023-04-26T04:30:07.698Z,5.57
2023-04-26T04:32:39.357Z,5.30
2023-04-26T04:35:07.295Z,5.75
2023-04-26T04:37:34.964Z,6.30
2023-04-26T04:40:02.268Z,5.97
2023-04-26T04:44:59.701Z,6.07
2023-04-26T04:47:27.432Z,5.63
2023-04-26T04:49:54.098Z,5.97
2023-04-26T04:52:21.764Z,5.75
2023-04-26T04:54:48.683Z,6.20
2023-04-26T04:57:16.615Z,6.38
2023-04-26T04:59:44.474Z,6.53
2023-04-26T05:02:11.492Z,6.18
2023-04-26T05:04:38.362Z,6.93
2023-04-26T05:07:06.575Z,5.80
2023-04-26T05:09:34.074Z,6.50
2023-04-26T05:12:01.380Z,6.22
2023-04-26T05:14:29.713Z,6.53
2023-04-26T05:16:56.647Z,6.38
2023-04-26T05:19:23.364Z,6.53
2023-04-26T05:21:49.915Z,6.82
2023-04-26T05:24:17.017Z,6.80
2023-04-26T05:26:43.761Z,7.10
2023-04-26T05:29:32.426Z,6.78
2023-04-26T05:32:18.349Z,6.70
2023-04-26T05:35:09.073Z,6.45
2023-04-26T05:37:36.162Z,6.45
2023-04-26T05:40:04.669Z,6.47
2023-04-26T05:42:31.316Z,7.00
2023-04-26T05:44:59.008Z,7.05
2023-04-26T05:47:27.209Z,7.18
2023-04-26T05:49:54.007Z,7.45
2023-04-26T05:52:20.561Z,8.90
2023-04-26T05:54:47.968Z,7.25
2023-04-26T05:57:14.568Z,7.20
2023-04-26T05:59:41.221Z,8.73
2023-04-26T06:02:08.267Z,7.60
2023-04-26T06:04:35.464Z,7.63
2023-04-26T06:07:14.773Z,6.90
2023-04-26T06:09:41.365Z,6.32
2023-04-26T06:12:08.418Z,6.75
2023-04-26T06:14:39.485Z,6.45
2023-04-26T06:17:10.691Z,6.57
2023-04-26T06:19:37.325Z,6.60
2023-04-26T06:22:03.974Z,6.10
2023-04-26T06:24:30.694Z,8.13
2023-04-26T06:26:58.355Z,6.63
2023-04-26T06:29:25.038Z,6.47
2023-04-26T06:31:51.599Z,5.82
2023-04-26T06:34:22.271Z,5.55
2023-04-26T06:36:48.832Z,6.45
2023-04-26T06:39:17.143Z,6.60
2023-04-26T06:41:44.079Z,6.80
2023-04-26T06:44:11.746Z,5.82
2023-04-26T06:46:42.398Z,6.43
2023-04-26T06:49:12.781Z,6.28
2023-04-26T06:51:39.754Z,6.20
2023-04-26T06:54:06.429Z,5.50
2023-04-26T06:56:33.044Z,6.38
2023-04-26T06:59:01.821Z,5.22
2023-04-26T07:01:29.423Z,5.43
2023-04-26T07:03:57.610Z,5.25
2023-04-26T07:06:26.192Z,4.95
2023-04-26T07:08:53.248Z,5.32
2023-04-26T07:11:20.869Z,4.45
2023-04-26T07:13:47.727Z,4.88
2023-04-26T07:16:14.382Z,5.07
2023-04-26T07:18:41.628Z,4.45
2023-04-26T07:21:08.566Z,5.22
2023-04-26T07:23:35.480Z,4.50
2023-04-26T07:26:04.198Z,4.00
2023-04-26T07:28:31.802Z,4.10
2023-04-26T07:31:00.192Z,4.32
2023-04-26T07:33:27.352Z,5.25
2023-04-26T07:35:59.376Z,4.28
2023-04-26T07:38:26.004Z,5.30
2023-04-26T07:40:52.763Z,3.88
2023-04-26T07:43:20.774Z,4.10
2023-04-26T07:45:47.400Z,3.42
2023-04-26T07:48:14.172Z,3.97
2023-04-26T07:50:40.742Z,4.13
2023-04-26T07:53:07.302Z,4.13
2023-04-26T07:55:33.865Z,3.63
2023-04-26T07:58:00.831Z,4.53
2023-04-26T08:00:27.732Z,4.10
2023-04-26T08:02:54.497Z,3.78
2023-04-26T08:05:22.157Z,4.25
2023-04-26T08:07:48.786Z,3.70
2023-04-26T08:10:15.818Z,3.83
2023-04-26T08:12:42.419Z,4.05
2023-04-26T08:15:11.015Z,4.18
2023-04-26T08:17:37.727Z,3.95
2023-04-26T08:20:09.832Z,3.63
2023-04-26T08:22:39.004Z,3.97
2023-04-26T08:25:06.448Z,3.33
2023-04-26T08:27:34.409Z,3.35
2023-04-26T08:30:01.071Z,2.47
2023-04-26T08:32:27.669Z,2.47
2023-04-26T08:34:54.304Z,2.70
2023-04-26T08:37:20.907Z,2.38
2023-04-26T08:39:47.429Z,2.65
2023-04-26T08:42:16.170Z,2.83
2023-04-26T08:44:44.391Z,4.13
2023-04-26T08:47:28.715Z,3.13
2023-04-26T08:49:59.768Z,2.88
2023-04-26T08:52:31.538Z,2.95
2023-04-26T08:54:59.686Z,2.25
2023-04-26T08:57:27.039Z,2.72
2023-04-26T08:59:53.851Z,2.15
2023-04-26T09:02:22.274Z,2.40
2023-04-26T09:04:50.719Z,2.65
2023-04-26T09:07:41.609Z,2.15
2023-04-26T09:10:09.778Z,2.38
2023-04-26T09:12:37.191Z,2.53
2023-04-26T09:15:07.292Z,2.78
2023-04-26T09:17:39.056Z,2.08
2023-04-26T09:20:24.208Z,2.45
2023-04-26T09:22:53.187Z,2.90
2023-04-26T09:25:29.311Z,3.17
2023-04-26T09:27:56.377Z,2.58
2023-04-26T09:30:23.583Z,3.00
2023-04-26T09:33:06.909Z,2.80
2023-04-26T09:35:41.935Z,2.83
2023-04-26T09:38:17.649Z,2.88
2023-04-26T09:40:49.378Z,3.05
2023-04-26T09:43:22.587Z,3.42
2023-04-26T09:45:54.054Z,3.35
2023-04-26T09:48:30.378Z,2.80
2023-04-26T09:50:59.355Z,2.80
2023-04-26T09:53:28.855Z,3.00
2023-04-26T09:55:56.721Z,2.78
2023-04-26T09:58:23.582Z,2.38
2023-04-26T10:00:54.599Z,1.90
2023-04-26T10:03:23.167Z,2.15
2023-04-26T10:05:50.190Z,2.13
2023-04-26T10:08:16.753Z,1.92
2023-04-26T10:10:43.901Z,2.28
2023-04-26T10:13:11.611Z,2.17
2023-04-26T10:15:39.817Z,1.98
2023-04-26T10:18:06.994Z,1.70
2023-04-26T10:20:35.326Z,1.65
2023-04-26T10:23:05.103Z,1.70
2023-04-26T10:25:36.534Z,1.83
2023-04-26T10:28:03.622Z,1.60
2023-04-26T10:30:30.446Z,1.70
2023-04-26T10:32:56.980Z,2.08
2023-04-26T10:35:26.071Z,1.75
2023-04-26T10:38:01.829Z,2.03
2023-04-26T10:40:32.467Z,1.80
2023-04-26T10:43:19.752Z,2.53
2023-04-26T10:45:47.589Z,1.63
2023-04-26T10:48:14.085Z,2.00
2023-04-26T10:50:59.469Z,2.40
2023-04-26T10:53:26.234Z,2.15
2023-04-26T10:55:53.262Z,1.35
2023-04-26T10:58:29.429Z,1.40
2023-04-26T11:01:20.964Z,1.67
2023-04-26T11:04:11.565Z,2.08
2023-04-26T11:06:59.974Z,1.73
2023-04-26T11:09:39.745Z,1.60
2023-04-26T11:14:45.507Z,1.58
2023-04-26T11:17:13.080Z,1.88
2023-04-26T11:19:41.894Z,2.00
2023-04-26T11:22:08.758Z,2.58
2023-04-26T11:24:42.645Z,2.13
2023-04-26T11:27:13.033Z,1.98
2023-04-26T11:29:39.608Z,2.53
2023-04-26T11:32:07.039Z,2.08
2023-04-26T11:34:34.352Z,1.95
2023-04-26T11:37:06.346Z,1.80
2023-04-26T11:39:33.502Z,1.95
2023-04-26T11:42:11.454Z,1.80
2023-04-26T11:44:39.838Z,2.10
2023-04-26T11:47:07.796Z,2.00
2023-04-26T11:49:36.611Z,1.88
2023-04-26T11:52:04.925Z,2.03
2023-04-26T11:54:37.507Z,2.15
2023-04-26T11:57:18.158Z,1.67
2023-04-26T11:59:45.781Z,1.88
2023-04-26T12:02:12.538Z,1.70
2023-04-26T12:04:41.183Z,2.05
2023-04-26T12:07:08.432Z,2.05
2023-04-26T12:09:36.580Z,2.20
2023-04-26T12:12:07.658Z,2.50
2023-04-26T12:14:36.123Z,2.13
2023-04-26T12:17:05.976Z,1.60
2023-04-26T12:19:40.505Z,1.92
2023-04-26T12:22:08.649Z,2.20
2023-04-26T12:24:38.454Z,1.70
2023-04-26T12:27:06.995Z,1.95
2023-04-26T12:29:34.655Z,2.40
2023-04-26T12:32:02.297Z,2.63
2023-04-26T12:34:28.955Z,2.17
2023-04-26T12:36:55.667Z,3.42
2023-04-26T12:39:22.273Z,2.47
2023-04-26T12:41:49.263Z,2.15
2023-04-26T12:44:15.914Z,2.05
2023-04-26T12:46:42.729Z,2.30
2023-04-26T12:49:09.443Z,2.30
2023-04-26T12:51:36.055Z,2.25
2023-04-26T12:54:02.942Z,2.38
2023-04-26T12:56:29.916Z,2.80
2023-04-26T12:58:56.829Z,3.30
2023-04-26T13:01:23.417Z,3.28
2023-04-26T13:03:50.241Z,2.72
2023-04-26T13:06:17.255Z,2.97
2023-04-26T13:08:43.777Z,2.75
2023-04-26T13:11:10.427Z,2.00
2023-04-26T13:13:43.598Z,3.03
2023-04-26T13:16:11.872Z,2.80
2023-04-26T13:18:39.117Z,2.50
2023-04-26T13:21:05.963Z,2.40
2023-04-26T13:23:32.571Z,2.13
2023-04-26T13:25:59.177Z,2.88
2023-04-26T13:28:25.917Z,2.63
2023-04-26T13:30:52.811Z,2.95
2023-04-26T13:33:21.036Z,2.30
2023-04-26T13:35:47.920Z,2.53
2023-04-26T13:38:14.612Z,2.70
2023-04-26T13:40:41.499Z,2.85
2023-04-26T13:43:08.060Z,2.53
2023-04-26T13:45:36.618Z,2.80
2023-04-26T13:48:03.332Z,2.72
2023-04-26T13:50:29.939Z,2.70
2023-04-26T13:52:56.690Z,2.50
2023-04-26T13:55:23.707Z,3.13
2023-04-26T13:57:50.356Z,2.03
2023-04-26T14:00:17.381Z,2.67
2023-04-26T14:02:46.218Z,2.90
2023-04-26T14:05:13.251Z,2.97
2023-04-26T14:07:41.374Z,2.80
2023-04-26T14:10:08.827Z,2.88
2023-04-26T14:12:35.493Z,4.13
2023-04-26T14:15:04.300Z,2.88
2023-04-26T14:17:32.396Z,2.78
2023-04-26T14:19:59.076Z,3.53
2023-04-26T14:22:27.056Z,2.95
2023-04-26T14:24:53.653Z,2.85
2023-04-26T14:27:20.326Z,2.17
2023-04-26T14:29:46.884Z,2.67
2023-04-26T14:32:13.708Z,2.53
2023-04-26T14:34:40.444Z,2.85
2023-04-26T14:37:07.696Z,2.90
2023-04-26T14:39:34.345Z,2.45
2023-04-26T14:42:01.694Z,2.40
2023-04-26T14:44:28.274Z,2.47
2023-04-26T14:46:54.852Z,2.15
2023-04-26T14:49:21.478Z,2.88
2023-04-26T14:51:48.043Z,2.97
2023-04-26T14:54:15.591Z,2.25
2023-04-26T14:56:42.224Z,2.92
2023-04-26T14:59:08.818Z,2.40
2023-04-26T15:01:35.506Z,2.20
2023-04-26T15:04:02.254Z,2.53
2023-04-26T15:06:30.742Z,2.55
2023-04-26T15:08:57.439Z,2.70
2023-04-26T15:11:24.087Z,2.40
2023-04-26T15:13:50.709Z,2.63
2023-04-26T15:16:17.504Z,2.60
2023-04-26T15:18:44.227Z,2.70
2023-04-26T15:21:19.324Z,2.50
2023-04-26T15:23:46.476Z,1.88
2023-04-26T15:26:13.645Z,1.90
2023-04-26T15:28:40.646Z,2.00
2023-04-26T15:31:11.125Z,2.33
2023-04-26T15:33:37.839Z,2.05
2023-04-26T15:36:05.293Z,2.05
2023-04-26T15:38:34.153Z,2.33
2023-04-26T15:41:01.033Z,2.40
2023-04-26T15:43:27.794Z,2.28
2023-04-26T15:45:54.715Z,2.38
2023-04-26T15:48:21.919Z,2.55
2023-04-26T15:50:48.423Z,2.17
2023-04-26T15:53:14.993Z,2.03
2023-04-26T15:55:41.601Z,2.80
2023-04-26T15:58:08.170Z,3.00
2023-04-26T16:00:36.297Z,3.13
2023-04-26T16:03:03.073Z,3.13
2023-04-26T16:05:31.468Z,3.00
2023-04-26T16:07:59.488Z,3.05
2023-04-26T16:10:26.470Z,2.83
2023-04-26T16:12:53.011Z,3.20
2023-04-26T16:15:19.817Z,2.40
2023-04-26T16:17:46.535Z,2.88
2023-04-26T16:20:13.156Z,3.00
2023-04-26T16:22:39.801Z,3.25
2023-04-26T16:25:06.887Z,4.47
2023-04-26T16:27:33.697Z,3.20
2023-04-26T16:30:00.360Z,3.40
2023-04-26T16:32:27.201Z,2.90
2023-04-26T16:34:53.805Z,3.40
2023-04-26T16:37:20.820Z,2.90
2023-04-26T16:39:47.384Z,3.58
2023-04-26T16:42:13.936Z,3.60
2023-04-26T16:44:40.733Z,3.25
2023-04-26T16:47:07.316Z,3.85
2023-04-26T16:49:34.175Z,3.22
2023-04-26T16:52:01.310Z,3.28
2023-04-26T16:54:28.265Z,2.78
2023-04-26T16:56:54.920Z,2.47
2023-04-26T16:59:21.643Z,3.97
2023-04-26T17:01:48.304Z,2.78
2023-04-26T17:04:15.068Z,2.67
2023-04-26T17:06:41.730Z,2.97
2023-04-26T17:09:08.792Z,3.20
2023-04-26T17:11:37.289Z,2.95
2023-04-26T17:14:04.409Z,3.45
2023-04-26T17:16:31.181Z,2.88
2023-04-26T17:18:58.359Z,2.85
2023-04-26T17:21:25.282Z,2.55
2023-04-26T17:23:52.203Z,2.55
2023-04-26T17:26:18.769Z,2.40
2023-04-26T17:28:45.381Z,3.25
2023-04-26T17:31:12.023Z,3.28
2023-04-26T17:33:38.607Z,3.13
2023-04-26T17:36:05.560Z,2.97
2023-04-26T17:38:32.125Z,3.05
2023-04-26T17:40:59.585Z,3.03
2023-04-26T17:43:26.142Z,3.22
2023-04-26T17:45:52.948Z,2.90
2023-04-26T17:48:19.637Z,3.40
2023-04-26T17:50:46.362Z,3.17
2023-04-26T17:53:13.054Z,3.70
2023-04-26T17:55:40.023Z,3.72
2023-04-26T17:58:06.563Z,2.75
2023-04-26T18:00:33.157Z,3.15
2023-04-26T18:03:02.811Z,3.05
2023-04-26T18:05:29.612Z,3.63
2023-04-26T18:07:56.506Z,3.20
2023-04-26T18:10:23.206Z,3.83
2023-04-26T18:12:49.886Z,3.03
2023-04-26T18:15:16.881Z,3.60
2023-04-26T18:17:43.693Z,4.28
2023-04-26T18:20:13.000Z,3.97
2023-04-26T18:22:40.129Z,3.13
2023-04-26T18:25:07.260Z,3.40
2023-04-26T18:27:33.934Z,3.78
2023-04-26T18:30:00.684Z,3.08
2023-04-26T18:32:27.385Z,3.17
2023-04-26T18:34:53.950Z,3.28
2023-04-26T18:37:20.484Z,3.30
2023-04-26T18:39:47.071Z,3.60
2023-04-26T18:42:13.621Z,3.50
2023-04-26T18:44:40.216Z,3.80
2023-04-26T18:47:06.814Z,3.03
2023-04-26T18:49:33.490Z,3.78
2023-04-26T18:52:00.704Z,4.63
2023-04-26T18:54:27.777Z,3.78
2023-04-26T18:56:54.345Z,3.85
2023-04-26T18:59:20.837Z,3.83
2023-04-26T19:01:49.073Z,3.30
2023-04-26T19:04:15.987Z,3.65
2023-04-26T19:06:42.793Z,3.17
2023-04-26T19:09:11.719Z,3.65
2023-04-26T19:11:38.433Z,2.97
2023-04-26T19:14:05.152Z,4.72
2023-04-26T19:16:31.996Z,3.28
2023-04-26T19:18:58.717Z,3.83
2023-04-26T19:21:25.429Z,3.60
2023-04-26T19:23:52.070Z,3.70
2023-04-26T19:26:18.589Z,3.85
2023-04-26T19:28:45.230Z,3.58
2023-04-26T19:31:11.745Z,3.75
2023-04-26T19:33:38.291Z,4.47
2023-04-26T19:36:04.989Z,4.13
2023-04-26T19:38:31.807Z,3.92
2023-04-26T19:40:58.317Z,4.32
2023-04-26T19:43:24.859Z,4.57
2023-04-26T19:45:51.388Z,4.05
2023-04-26T19:48:17.906Z,4.38
2023-04-26T19:50:46.164Z,3.80
2023-04-26T19:53:14.449Z,4.00
2023-04-26T19:55:42.221Z,3.78
2023-04-26T19:58:10.321Z,4.25
2023-04-26T20:00:37.825Z,4.15
2023-04-26T20:03:05.306Z,4.88
2023-04-26T20:05:32.215Z,5.20
2023-04-26T20:07:58.884Z,9.68
2023-04-26T20:10:25.574Z,13.50
2023-04-26T20:12:53.114Z,13.65
2023-04-26T20:15:19.758Z,10.38
2023-04-26T20:17:46.403Z,8.50
2023-04-26T20:20:13.125Z,7.15
2023-04-26T20:22:40.676Z,6.25
2023-04-26T20:25:07.823Z,5.72
2023-04-26T20:27:34.883Z,5.50
2023-04-26T20:30:01.777Z,5.50
2023-04-26T20:32:28.517Z,5.43
2023-04-26T20:34:55.149Z,5.45
2023-04-26T20:37:22.052Z,5.43
2023-04-26T20:39:49.030Z,4.90
2023-04-26T20:42:16.051Z,4.88
2023-04-26T20:44:43.034Z,5.35
2023-04-26T20:47:09.703Z,5.00
2023-04-26T20:49:36.307Z,4.35
2023-04-26T20:52:03.010Z,5.28
2023-04-26T20:54:29.554Z,5.22
2023-04-26T20:56:56.128Z,4.90
2023-04-26T20:59:25.042Z,4.25
2023-04-26T21:01:53.138Z,6.03
2023-04-26T21:04:20.014Z,4.90
2023-04-26T21:06:46.710Z,4.95
2023-04-26T21:09:13.485Z,5.75
2023-04-26T21:11:40.144Z,6.03
2023-04-26T21:14:07.157Z,6.40
2023-04-26T21:16:33.857Z,8.30
2023-04-26T21:19:00.444Z,7.68
2023-04-26T21:21:28.609Z,7.07
2023-04-26T21:23:55.193Z,11.50
2023-04-26T21:26:21.855Z,8.27
2023-04-26T21:28:48.594Z,6.10
2023-04-26T21:31:15.490Z,5.30
2023-04-26T21:33:42.121Z,4.50
2023-04-26T21:36:09.009Z,4.30
2023-04-26T21:38:35.637Z,4.60
2023-04-26T21:41:02.207Z,5.35
2023-04-26T21:43:28.841Z,4.43
2023-04-26T21:45:56.396Z,5.53
2023-04-26T21:48:22.977Z,5.50
2023-04-26T21:50:49.934Z,5.43
2023-04-26T21:53:17.326Z,4.30
2023-04-26T21:55:43.850Z,4.63
2023-04-26T21:58:10.345Z,4.50
2023-04-26T22:00:37.320Z,5.05
2023-04-26T22:03:04.111Z,5.18
2023-04-26T22:05:30.988Z,4.78
2023-04-26T22:07:57.544Z,6.35
2023-04-26T22:10:24.131Z,5.68
2023-04-26T22:12:50.749Z,5.63
2023-04-26T22:15:17.326Z,5.88
2023-04-26T22:17:44.045Z,6.60
2023-04-26T22:20:12.003Z,6.68
2023-04-26T22:22:38.622Z,6.20
2023-04-26T22:25:05.907Z,6.40
2023-04-26T22:27:32.556Z,6.78
2023-04-26T22:30:06.242Z,6.43
2023-04-26T22:32:39.248Z,5.88
2023-04-26T22:35:06.279Z,6.30
2023-04-26T22:37:32.839Z,6.22
2023-04-26T22:39:59.398Z,6.22
2023-04-26T22:42:25.941Z,6.57
2023-04-26T22:44:52.755Z,6.60
2023-04-26T22:47:22.779Z,6.85
2023-04-26T22:49:49.704Z,6.68
2023-04-26T22:54:43.766Z,7.80
2023-04-26T22:57:10.320Z,8.63
2023-04-26T22:59:36.915Z,7.55
2023-04-26T23:02:03.482Z,7.25
2023-04-26T23:04:30.152Z,7.03
2023-04-26T23:06:56.811Z,7.47
2023-04-26T23:09:23.441Z,7.35
2023-04-26T23:11:50.057Z,6.40
2023-04-26T23:14:17.090Z,6.85
2023-04-26T23:16:43.695Z,6.93
2023-04-26T23:19:11.254Z,6.32
2023-04-26T23:21:37.963Z,7.32
2023-04-26T23:24:04.850Z,7.10
2023-04-26T23:26:32.050Z,6.72
2023-04-26T23:28:58.558Z,7.05
2023-04-26T23:31:25.356Z,6.05
2023-04-26T23:33:51.919Z,6.85
2023-04-26T23:36:18.467Z,6.35
2023-04-26T23:38:45.006Z,6.20
2023-04-26T23:41:11.567Z,6.18
2023-04-26T23:43:38.171Z,6.95
2023-04-26T23:46:04.734Z,6.82
2023-04-26T23:48:31.277Z,6.47
2023-04-26T23:50:57.820Z,6.38
2023-04-26T23:53:24.398Z,6.95
2023-04-26T23:55:51.193Z,7.65
2023-04-26T23:58:17.734Z,7.03
